createdAt,value
2023-01-26T00:06:30.854Z,-0.6
2023-01-26T00:25:45.621Z,-0.5
2023-01-26T00:45:01.459Z,-0.3
2023-01-26T01:04:15.303Z,-0.4
2023-01-26T01:23:30.304Z,-0.3
2023-01-26T01:42:45.866Z,-0.3
2023-01-26T02:02:00.322Z,-0.6
2023-01-26T02:21:14.932Z,-0.3
2023-01-26T02:40:29.268Z,-0.5
2023-01-26T02:59:43.428Z,-0.5
2023-01-26T03:18:59.175Z,-0.3
2023-01-26T03:38:13.991Z,-0.4
2023-01-26T03:57:29.417Z,-0.3
2023-01-26T04:16:44.937Z,-0.4
2023-01-26T04:35:58.713Z,-0.4
2023-01-26T04:55:13.037Z,-0.6
2023-01-26T05:14:28.601Z,-0.4
2023-01-26T05:33:44.046Z,-0.5
2023-01-26T05:52:56.328Z,-0.5
2023-01-26T06:12:12.038Z,-0.3
2023-01-26T06:31:27.509Z,-0.3
2023-01-26T06:50:41.926Z,-0.2
2023-01-26T07:09:57.167Z,-0.2
2023-01-26T07:29:12.816Z,-0.2
2023-01-26T07:48:27.555Z,0
2023-01-26T08:07:40.663Z,0.2
2023-01-26T08:26:56.190Z,0.3
2023-01-26T08:46:12.610Z,0.3
2023-01-26T09:05:28.005Z,0.3
2023-01-26T09:24:44.278Z,0.4
2023-01-26T09:43:59.685Z,0.6
2023-01-26T10:03:16.085Z,0.9
2023-01-26T10:22:31.438Z,1
2023-01-26T10:41:46.755Z,1
2023-01-26T11:01:01.934Z,1.2
2023-01-26T11:20:17.981Z,1.3
2023-01-26T11:39:36.076Z,1.3
2023-01-26T11:58:47.974Z,1.4
2023-01-26T12:18:04.223Z,1.6
2023-01-26T12:37:20.293Z,1.6
2023-01-26T12:56:36.297Z,1.6
2023-01-26T13:15:52.650Z,1.9
2023-01-26T13:35:06.446Z,2
2023-01-26T13:54:21.022Z,2
2023-01-26T14:13:37.628Z,2.2
2023-01-26T14:32:39.360Z,2.1
2023-01-26T14:51:54.205Z,2
2023-01-26T15:11:09.416Z,2
2023-01-26T15:30:26.454Z,1.9
2023-01-26T15:49:40.997Z,2
2023-01-26T16:08:56.892Z,2
2023-01-26T16:28:12.506Z,2
2023-01-26T16:47:27.553Z,1.9
2023-01-26T17:06:43.506Z,2
2023-01-26T17:25:58.775Z,2.1
2023-01-26T17:45:13.963Z,2.2
2023-01-26T18:04:28.502Z,2.2
2023-01-26T18:23:43.089Z,2.1
2023-01-26T18:42:58.912Z,2.1
2023-01-26T19:02:13.791Z,2.3
2023-01-26T19:21:28.787Z,2.3
2023-01-26T19:40:44.969Z,2.3
2023-01-26T19:59:59.661Z,2.3
2023-01-26T20:19:15.103Z,2.4
2023-01-26T20:38:32.927Z,2.5
2023-01-26T20:57:45.811Z,2.5
2023-01-26T21:17:01.749Z,2.8
2023-01-26T21:36:17.041Z,2.6
2023-01-26T21:55:32.527Z,2.8
2023-01-26T22:14:47.971Z,2.8
2023-01-26T22:34:02.566Z,2.8
2023-01-26T22:53:14.341Z,2.8
2023-01-26T23:12:29.835Z,2.8
2023-01-26T23:31:45.595Z,2.9
2023-01-26T23:51:00.486Z,2.8
